Airfield :
LOGIN :

Register | Disclaimer

   EN    FR    IT 

 










Legend :    VFR   Marginal VFR   IFR   Intensive IFR   Very Intensive IFR
Visi :
Ceiling :
>= 8 km
>= 3000ft
5 to 8 km
1000 to 3000 ft
1500m to 5 km
500 to 1000 ft
800 to 1500m
200 to 500 ft
< 800m
< 200 ft
Symbols :   Thunderstorms  Fog  Heavy snow  Heavy precipitations  Wind > 20 kt
SIGMETs :     Misc.  Thunderstorms  Icing  Turbulence  Mountain Waves  Volcanic Ashes







- Airport Elevation : 195 ft
- Download approach charts


LFMY - Salon de Provence

CURRENT METAR :
  • 151930Z AUTO 34016KT CAVOK 25/12 Q1010

EXPIRED METARs :
  • 151900Z AUTO 33015KT CAVOK 26/12 Q1010
  • 151830Z AUTO 33014KT CAVOK 27/12 Q1010
  • 151800Z AUTO 33017KT CAVOK 27/12 Q1009
  • 151730Z AUTO 33015KT CAVOK 28/12 Q1009
  • 151700Z AUTO 33016KT 290V350 CAVOK 28/12 Q1009

TAF TAF LFMY
Valid from the 15 at 15:00 until the 16 at 15:00 UTC


151400Z 1515/1615 34023G33KT CAVOK
BECMG 1518/1520 05005KT
BECMG 1610/1612 20012KT
No reported NOTAMs for that airfield.
2 SIGMETs reported for the Marseille FIR (LFMM) :
 
Embedded thunderstorms
LFMM SIGMET 15 VALID 151800/152000 LFPW
LFMM MARSEILLE FIR/UIR EMBD TS OBS WI N4315 E00915 - N4315 E00945 - N4145 E00945 - N4130 E00800 - N4200 E00730 - N4315 E00915 TOP FL350 MOV SE 15KT NC=
Severe turbulence
LFMM SIGMET 14 VALID 151800/152000 LFPW
LFMM MARSEILLE FIR/UIR SEV TURB FCST WI N4430 E00700 - N4400 E00700 - N4415 E00615 - N4430 E00700 SFC/FL100 STNR NC=



MET'MAP, your aeronautical weather chart ! - Copyright ORBIFLY December 2007 - Disclaimer

ORBIFLY MET'MAP TEAM :

Programming & Development : Alexandra Zaïnal
Concept & Development : Baudouin d'Aumeries
Co-Development & Prog : Marc-Olivier Méhu
Technical & hardware support : Manuel Goepfert

Contact : metmap@orbifly.com




SOURCES & CREDITS :

   NOAA